createdAt,value
2018-08-23T00:01:18.145Z,27.6
2018-08-23T00:02:09.043Z,27.5
2018-08-23T00:02:58.744Z,27.6
2018-08-23T00:03:49.635Z,27.6
2018-08-23T00:04:38.998Z,27.5
2018-08-23T00:05:28.820Z,27.5
2018-08-23T00:06:18.913Z,27.6
2018-08-23T00:07:09.575Z,27.6
2018-08-23T00:07:59.726Z,27.5
2018-08-23T00:08:49.797Z,27.5
2018-08-23T00:09:39.501Z,27.5
2018-08-23T00:10:29.647Z,27.5
2018-08-23T00:11:19.658Z,27.5
2018-08-23T00:12:09.888Z,27.5
2018-08-23T00:31:26.728Z,27.4
2018-08-23T00:32:17.103Z,27.5
2018-08-23T00:33:06.603Z,27.5
2018-08-23T00:33:56.888Z,27.5
2018-08-23T00:34:47.006Z,27.5
2018-08-23T00:35:37.075Z,27.5
2018-08-23T00:36:26.841Z,27.4
2018-08-23T00:37:17.463Z,27.5
2018-08-23T00:38:06.694Z,27.5
2018-08-23T00:38:57.321Z,27.4
2018-08-23T00:39:47.685Z,27.4
2018-08-23T00:40:37.759Z,27.5
2018-08-23T00:41:27.256Z,27.4
2018-08-23T00:42:17.618Z,27.4
2018-08-23T00:43:07.605Z,27.4
2018-08-23T00:43:57.376Z,27.5
2018-08-23T00:44:46.034Z,27.4
2018-08-23T00:45:37.819Z,27.4
2018-08-23T00:46:27.891Z,27.4
2018-08-23T00:47:17.916Z,27.5
2018-08-23T00:48:07.984Z,27.4
2018-08-23T00:48:57.512Z,27.4
2018-08-23T00:49:48.133Z,27.4
2018-08-23T00:50:37.608Z,27.4
2018-08-23T00:51:27.951Z,27.4
2018-08-23T00:52:18.347Z,27.4
2018-08-23T00:53:08.688Z,27.4
2018-08-23T00:53:57.938Z,27.4
2018-08-23T00:54:48.845Z,27.4
2018-08-23T00:55:38.820Z,27.4
2018-08-23T00:56:28.341Z,27.4
2018-08-23T00:57:18.708Z,27.4
2018-08-23T00:58:08.751Z,27.4
2018-08-23T00:58:59.115Z,27.4
2018-08-23T00:59:49.135Z,27.4
2018-08-23T01:00:39.233Z,27.4
2018-08-23T01:01:29.272Z,27.4
2018-08-23T01:02:19.377Z,27.4
2018-08-23T01:03:09.157Z,27.4
2018-08-23T01:03:58.905Z,27.4
2018-08-23T01:04:49.519Z,27.4
2018-08-23T01:05:39.329Z,27.4
2018-08-23T01:06:29.670Z,27.4
2018-08-23T01:07:19.724Z,27.4
2018-08-23T01:08:09.845Z,27.4
2018-08-23T01:08:59.863Z,27.4
2018-08-23T01:09:49.947Z,27.4
2018-08-23T01:10:39.442Z,27.4
2018-08-23T01:11:29.857Z,27.4
2018-08-23T01:12:20.117Z,27.4
2018-08-23T01:13:10.177Z,27.4
2018-08-23T01:13:59.937Z,27.4
2018-08-23T01:14:49.759Z,27.4
2018-08-23T01:15:39.785Z,27.4
2018-08-23T01:16:29.855Z,27.4
2018-08-23T01:17:19.939Z,27.4
2018-08-23T01:18:09.134Z,27.4
2018-08-23T01:19:00.367Z,27.4
2018-08-23T01:19:50.747Z,27.4
2018-08-23T01:20:40.189Z,27.4
2018-08-23T01:21:30.861Z,27.4
2018-08-23T01:22:20.983Z,27.4
2018-08-23T01:23:10.964Z,27.4
2018-08-23T01:24:00.456Z,27.4
2018-08-23T01:24:50.839Z,27.4
2018-08-23T01:25:40.597Z,27.4
2018-08-23T01:26:31.244Z,27.4
2018-08-23T01:27:21.289Z,27.4
2018-08-23T01:28:11.074Z,27.4
2018-08-23T01:29:00.847Z,27.4
2018-08-23T01:29:50.896Z,27.4
2018-08-23T01:30:41.273Z,27.4
2018-08-23T01:31:31.638Z,27.4
2018-08-23T01:32:21.710Z,27.4
2018-08-23T01:33:11.762Z,27.4
2018-08-23T01:34:00.928Z,27.4
2018-08-23T01:34:51.575Z,27.4
2018-08-23T01:35:41.966Z,27.4
2018-08-23T01:36:31.957Z,27.4
2018-08-23T01:37:22.020Z,27.4
2018-08-23T01:38:11.806Z,27.4
2018-08-23T01:39:01.617Z,27.4
2018-08-23T01:39:51.928Z,27.4
2018-08-23T01:40:42.283Z,27.4
2018-08-23T01:41:32.078Z,27.4
2018-08-23T01:42:22.148Z,27.4
2018-08-23T01:43:12.478Z,27.3
2018-08-23T01:44:02.531Z,27.4
2018-08-23T01:44:52.010Z,27.3
2018-08-23T01:45:41.815Z,27.3
2018-08-23T01:46:32.153Z,27.3
2018-08-23T01:47:22.193Z,27.4
2018-08-23T01:48:12.579Z,27.4
2018-08-23T01:49:02.651Z,27.3
2018-08-23T01:49:52.699Z,27.3
2018-08-23T01:50:42.457Z,27.4
2018-08-23T01:51:32.560Z,27.3
2018-08-23T01:52:23.157Z,27.3
2018-08-23T01:53:12.677Z,27.3
2018-08-23T01:54:02.824Z,27.3
2018-08-23T01:54:53.358Z,27.4
2018-08-23T01:55:42.698Z,27.4
2018-08-23T01:56:32.719Z,27.3
2018-08-23T01:57:22.486Z,27.3
2018-08-23T01:58:13.059Z,27.4
2018-08-23T01:59:03.785Z,27.3
2018-08-23T01:59:52.913Z,27.3
2018-08-23T02:00:43.281Z,27.3
2018-08-23T02:01:33.341Z,27.3
2018-08-23T02:02:23.659Z,27.3
2018-08-23T02:03:13.812Z,27.3
2018-08-23T02:04:03.836Z,27.3
2018-08-23T02:04:53.609Z,27.3
2018-08-23T02:05:44.239Z,27.3
2018-08-23T02:06:33.703Z,27.3
2018-08-23T02:07:23.797Z,27.3
2018-08-23T02:08:14.418Z,27.3
2018-08-23T02:09:03.918Z,27.4
2018-08-23T02:09:54.246Z,27.3
2018-08-23T02:10:44.583Z,27.3
2018-08-23T02:11:34.626Z,27.3
2018-08-23T02:12:24.688Z,27.3
2018-08-23T02:13:14.791Z,27.3
2018-08-23T02:14:04.276Z,27.3
2018-08-23T02:14:54.900Z,27.3
2018-08-23T02:15:44.694Z,27.3
2018-08-23T02:16:34.481Z,27.3
2018-08-23T02:17:25.105Z,27.3
2018-08-23T02:18:15.182Z,27.3
2018-08-23T02:19:04.519Z,27.3
2018-08-23T02:19:54.545Z,27.3
2018-08-23T02:20:45.089Z,27.3
2018-08-23T02:21:35.405Z,27.3
2018-08-23T02:22:24.721Z,27.3
2018-08-23T02:23:15.265Z,27.3
2018-08-23T02:24:05.335Z,27.3
2018-08-23T02:24:55.188Z,27.3
2018-08-23T02:25:45.452Z,27.3
2018-08-23T02:26:35.325Z,27.3
2018-08-23T02:27:25.018Z,27.3
2018-08-23T02:28:15.088Z,27.3
2018-08-23T02:29:05.262Z,27.3
2018-08-23T02:29:55.847Z,27.3
2018-08-23T02:30:45.875Z,27.3
2018-08-23T02:31:35.660Z,27.3
2018-08-23T02:32:25.695Z,27.3
2018-08-23T02:33:15.761Z,27.3
2018-08-23T02:34:06.404Z,27.3
2018-08-23T02:34:56.217Z,27.3
2018-08-23T02:35:46.238Z,27.3
2018-08-23T02:36:36.300Z,27.3
2018-08-23T02:37:26.081Z,27.3
2018-08-23T02:38:17.691Z,27.3
2018-08-23T02:39:06.218Z,27.3
2018-08-23T02:39:56.305Z,27.3
2018-08-23T02:40:46.619Z,27.3
2018-08-23T02:41:36.976Z,27.3
2018-08-23T02:42:27.047Z,27.3
2018-08-23T02:43:16.946Z,27.3
2018-08-23T02:44:06.123Z,27.3
2018-08-23T02:44:56.490Z,27.3
2018-08-23T02:45:46.760Z,27.3
2018-08-23T02:46:37.070Z,27.3
2018-08-23T02:47:27.412Z,27.3
2018-08-23T02:48:17.485Z,27.3
2018-08-23T02:49:07.601Z,27.3
2018-08-23T02:49:57.332Z,27.3
2018-08-23T02:50:47.673Z,27.3
2018-08-23T02:51:37.444Z,27.3
2018-08-23T02:52:27.202Z,27.3
2018-08-23T02:53:17.026Z,27.3
2018-08-23T02:54:07.616Z,27.3
2018-08-23T02:54:57.699Z,27.3
2018-08-23T02:55:47.775Z,27.2
2018-08-23T02:56:38.119Z,27.3
2018-08-23T02:57:27.604Z,27.3
2018-08-23T02:58:17.959Z,27.2
2018-08-23T02:59:08.377Z,27.3
2018-08-23T02:59:58.103Z,27.3
2018-08-23T03:00:47.633Z,27.2
2018-08-23T03:01:38.545Z,27.3
2018-08-23T03:02:28.302Z,27.3
2018-08-23T03:03:18.695Z,27.3
2018-08-23T03:04:08.741Z,27.2
2018-08-23T03:04:57.941Z,27.3
2018-08-23T03:05:48.297Z,27.2
2018-08-23T03:06:38.944Z,27.2
2018-08-23T03:07:28.987Z,27.2
2018-08-23T03:08:19.058Z,27.2
2018-08-23T03:09:08.833Z,27.2
2018-08-23T03:09:58.882Z,27.2
2018-08-23T03:10:48.943Z,27.2
2018-08-23T03:11:39.288Z,27.2
2018-08-23T03:12:29.084Z,27.2
2018-08-23T03:13:18.914Z,27.2
2018-08-23T03:14:09.889Z,27.2
2018-08-23T03:14:59.266Z,27.2
2018-08-23T03:15:49.338Z,27.2
2018-08-23T03:16:39.676Z,27.2
2018-08-23T03:17:29.455Z,27.2
2018-08-23T03:18:19.819Z,27.2
2018-08-23T03:19:09.589Z,27.2
2018-08-23T03:19:59.961Z,27.2
2018-08-23T03:20:49.698Z,27.2
2018-08-23T03:21:40.046Z,27.2
2018-08-23T03:22:29.547Z,27.2
2018-08-23T03:23:19.904Z,27.2
2018-08-23T03:24:09.948Z,27.2
2018-08-23T03:25:00.030Z,27.2
2018-08-23T03:25:50.135Z,27.2
2018-08-23T03:26:40.470Z,27.1
2018-08-23T03:27:30.216Z,27.2
2018-08-23T03:28:20.015Z,27.2
2018-08-23T03:29:10.326Z,27.1
2018-08-23T03:30:00.402Z,27.2
2018-08-23T03:30:50.830Z,27.2
2018-08-23T03:31:40.293Z,27.1
2018-08-23T03:32:30.654Z,27.1
2018-08-23T03:33:20.688Z,27.1
2018-08-23T03:34:11.066Z,27.1
2018-08-23T03:35:00.228Z,27.1
2018-08-23T03:35:50.877Z,27.1
2018-08-23T03:36:40.927Z,27.1
2018-08-23T03:37:30.767Z,27.2
2018-08-23T03:38:21.362Z,27.1
2018-08-23T03:39:11.121Z,27.1
2018-08-23T03:40:01.297Z,27.2
2018-08-23T03:40:51.282Z,27.1
2018-08-23T03:41:41.367Z,27.1
2018-08-23T03:42:31.109Z,27.1
2018-08-23T03:43:21.662Z,27.1
2018-08-23T03:44:10.653Z,27.1
2018-08-23T03:45:01.291Z,27.2
2018-08-23T03:45:51.718Z,27.1
2018-08-23T03:46:41.961Z,27.1
2018-08-23T03:47:31.184Z,27.1
2018-08-23T03:48:22.130Z,27.1
2018-08-23T03:49:11.889Z,27.1
2018-08-23T03:50:01.105Z,27.1
2018-08-23T03:50:52.029Z,27.1
2018-08-23T03:51:41.819Z,27.1
2018-08-23T03:52:32.275Z,27.1
2018-08-23T03:53:21.917Z,27.1
2018-08-23T03:54:12.596Z,27.1
2018-08-23T03:55:01.821Z,27.1
2018-08-23T03:55:52.679Z,27.1
2018-08-23T03:56:42.735Z,27.1
2018-08-23T03:57:32.552Z,27.1
2018-08-23T03:58:22.034Z,27.1
2018-08-23T03:59:12.929Z,27.1
2018-08-23T04:00:03.072Z,27.1
2018-08-23T04:00:53.079Z,27.1
2018-08-23T04:01:43.126Z,27.1
2018-08-23T04:02:33.191Z,27.1
2018-08-23T04:03:22.969Z,27.1
2018-08-23T04:04:12.782Z,27.1
2018-08-23T04:05:02.827Z,27.1
2018-08-23T04:05:53.209Z,27.1
2018-08-23T04:06:43.264Z,27.1
2018-08-23T04:07:32.767Z,27.1
2018-08-23T04:08:23.650Z,27.1
2018-08-23T04:09:13.134Z,27.1
2018-08-23T04:10:03.790Z,27.1
2018-08-23T04:10:53.001Z,27.1
2018-08-23T04:11:43.637Z,27.1
2018-08-23T04:12:33.694Z,27.1
2018-08-23T04:13:24.049Z,27.1
2018-08-23T04:14:14.140Z,27.1
2018-08-23T04:15:03.924Z,27.1
2018-08-23T04:15:53.965Z,27.1
2018-08-23T04:16:44.319Z,27.2
2018-08-23T04:17:34.085Z,27.2
2018-08-23T04:18:24.136Z,27.3
2018-08-23T04:19:14.490Z,27.3
2018-08-23T04:20:04.579Z,27.3
2018-08-23T04:20:54.634Z,27.3
2018-08-23T04:21:44.452Z,27.3
2018-08-23T04:22:34.477Z,27.3
2018-08-23T04:23:24.255Z,27.3
2018-08-23T04:24:14.615Z,27.3
2018-08-23T04:25:04.713Z,27.3
2018-08-23T04:25:54.752Z,27.3
2018-08-23T04:26:45.078Z,27.2
2018-08-23T04:27:34.853Z,27.3
2018-08-23T04:28:24.633Z,27.3
2018-08-23T04:29:15.241Z,27.2
2018-08-23T04:30:05.039Z,27.2
2018-08-23T04:30:54.829Z,27.2
2018-08-23T04:31:45.178Z,27.2
2018-08-23T04:32:35.556Z,27.2
2018-08-23T04:33:25.581Z,27.2
2018-08-23T04:34:14.779Z,27.2
2018-08-23T04:35:05.419Z,27.2
2018-08-23T04:35:55.772Z,27.2
2018-08-23T04:36:45.297Z,27.1
2018-08-23T04:37:35.608Z,27.1
2018-08-23T04:38:25.729Z,27.2
2018-08-23T04:39:16.009Z,27.2
2018-08-23T04:40:05.243Z,27.1
2018-08-23T04:40:55.886Z,27.1
2018-08-23T04:41:46.237Z,27.1
2018-08-23T04:42:35.722Z,27.1
2018-08-23T05:00:32.673Z,27.1
2018-08-23T05:01:23.360Z,27.1
2018-08-23T05:02:13.093Z,27.1
2018-08-23T05:03:02.861Z,27
2018-08-23T05:03:53.343Z,27.1
2018-08-23T05:04:43.576Z,27.1
2018-08-23T05:05:33.619Z,27.1
2018-08-23T05:06:23.192Z,27
2018-08-23T05:07:13.448Z,27
2018-08-23T05:08:03.795Z,27
2018-08-23T05:08:53.855Z,27.1
2018-08-23T05:09:43.918Z,27
2018-08-23T05:10:33.552Z,27
2018-08-23T05:11:23.471Z,27
2018-08-23T05:12:14.111Z,27
2018-08-23T05:13:04.239Z,27
2018-08-23T05:13:53.828Z,27
2018-08-23T05:14:44.020Z,27
2018-08-23T05:15:33.822Z,27
2018-08-23T05:16:23.619Z,27
2018-08-23T05:17:13.184Z,27
2018-08-23T05:18:04.306Z,27
2018-08-23T05:18:53.905Z,27
2018-08-23T05:19:44.219Z,27
2018-08-23T05:20:34.494Z,27
2018-08-23T05:21:24.301Z,27
2018-08-23T05:22:14.594Z,26.9
2018-08-23T05:23:05.119Z,27
2018-08-23T05:23:55.053Z,26.9
2018-08-23T05:24:45.081Z,26.9
2018-08-23T05:25:35.135Z,26.9
2018-08-23T05:26:24.656Z,26.9
2018-08-23T05:27:15.271Z,26.9
2018-08-23T05:28:05.357Z,26.9
2018-08-23T05:28:55.397Z,26.9
2018-08-23T05:29:45.822Z,26.9
2018-08-23T05:30:35.252Z,26.9
2018-08-23T05:31:25.590Z,26.9
2018-08-23T05:32:15.646Z,26.9
2018-08-23T05:33:05.763Z,26.9
2018-08-23T05:33:55.771Z,26.9
2018-08-23T05:34:45.595Z,26.9
2018-08-23T05:35:35.378Z,26.9
2018-08-23T05:36:25.713Z,26.9
2018-08-23T05:37:15.772Z,26.9
2018-08-23T05:38:06.112Z,26.9
2018-08-23T05:38:55.713Z,26.9
2018-08-23T05:39:46.228Z,26.9
2018-08-23T05:40:36.026Z,26.9
2018-08-23T05:41:25.812Z,26.9
2018-08-23T05:42:16.150Z,26.9
2018-08-23T05:43:06.192Z,26.9
2018-08-23T05:43:56.274Z,26.9
2018-08-23T05:44:46.612Z,26.9
2018-08-23T05:45:36.410Z,26.9
2018-08-23T05:46:27.188Z,26.9
2018-08-23T05:47:16.287Z,26.9
2018-08-23T05:48:06.713Z,26.9
2018-08-23T05:48:56.971Z,26.9
2018-08-23T05:49:46.722Z,26.9
2018-08-23T05:50:36.562Z,26.9
2018-08-23T05:51:26.867Z,26.9
2018-08-23T05:52:16.940Z,26.8
2018-08-23T05:53:06.695Z,26.8
2018-08-23T05:53:57.070Z,26.8
2018-08-23T05:54:46.871Z,26.8
2018-08-23T05:55:37.214Z,26.8
2018-08-23T05:56:26.794Z,26.8
2018-08-23T05:57:17.596Z,26.8
2018-08-23T05:58:07.418Z,26.8
2018-08-23T05:58:57.455Z,26.8
2018-08-23T05:59:47.799Z,26.8
2018-08-23T06:00:37.319Z,26.8
2018-08-23T06:01:27.925Z,26.8
2018-08-23T06:02:17.969Z,26.8
2018-08-23T06:03:07.764Z,26.8
2018-08-23T06:03:57.817Z,26.8
2018-08-23T06:04:47.872Z,26.8
2018-08-23T06:05:38.258Z,26.8
2018-08-23T06:06:28.019Z,26.8
2018-08-23T06:07:18.420Z,26.8
2018-08-23T06:08:07.489Z,26.8
2018-08-23T06:08:58.479Z,26.8
2018-08-23T06:09:48.244Z,26.8
2018-08-23T06:10:38.596Z,26.8
2018-08-23T06:11:28.720Z,26.8
2018-08-23T06:12:18.476Z,26.9
2018-08-23T06:13:08.534Z,26.8
2018-08-23T06:13:58.587Z,26.9
2018-08-23T06:14:48.961Z,26.8
2018-08-23T06:15:38.988Z,26.8
2018-08-23T06:16:29.075Z,26.8
2018-08-23T06:17:18.587Z,26.9
2018-08-23T06:18:09.177Z,26.8
2018-08-23T06:18:59.243Z,26.8
2018-08-23T06:19:49.396Z,26.8
2018-08-23T06:20:39.370Z,26.8
2018-08-23T06:21:29.198Z,26.9
2018-08-23T06:22:19.509Z,26.8
2018-08-23T06:23:09.315Z,26.8
2018-08-23T06:23:59.140Z,26.8
2018-08-23T06:24:48.888Z,26.8
2018-08-23T06:25:38.792Z,26.8
2018-08-23T06:26:28.832Z,26.8
2018-08-23T06:27:18.743Z,26.8
2018-08-23T06:28:09.441Z,26.8
2018-08-23T06:28:58.542Z,26.9
2018-08-23T06:29:49.387Z,26.8
2018-08-23T06:30:38.880Z,26.8
2018-08-23T06:31:29.428Z,26.8
2018-08-23T06:32:18.811Z,26.8
2018-08-23T06:33:10.509Z,26.8
2018-08-23T06:34:00.641Z,26.8
2018-08-23T06:34:49.689Z,26.8
2018-08-23T06:35:39.848Z,26.8
2018-08-23T06:36:29.923Z,26.8
2018-08-23T06:37:19.990Z,26.8
2018-08-23T06:38:10.028Z,26.8
2018-08-23T06:38:59.872Z,26.8
2018-08-23T06:39:50.338Z,26.8
2018-08-23T06:40:40.744Z,26.8
2018-08-23T06:41:29.994Z,26.8
2018-08-23T06:42:20.532Z,26.8
2018-08-23T06:43:10.609Z,26.6
2018-08-23T06:44:00.470Z,34
2018-08-23T06:44:50.857Z,50.7
2018-08-23T06:45:40.276Z,55.4
2018-08-23T06:46:30.902Z,55.3
2018-08-23T06:47:20.727Z,54.6
2018-08-23T06:48:10.595Z,54.1
2018-08-23T06:49:01.017Z,53.6
2018-08-23T06:49:50.880Z,53.1
2018-08-23T06:50:40.170Z,52.8
2018-08-23T06:51:31.282Z,52.3
2018-08-23T06:52:20.845Z,51.8
2018-08-23T06:53:12.042Z,51.4
2018-08-23T06:54:00.773Z,50.9
2018-08-23T06:54:51.263Z,50.4
2018-08-23T06:55:41.664Z,49.9
2018-08-23T06:56:31.461Z,49.4
2018-08-23T06:57:20.937Z,48.9
2018-08-23T06:58:11.804Z,48.5
2018-08-23T06:59:01.418Z,48
2018-08-23T06:59:51.524Z,47.6
2018-08-23T07:00:41.688Z,47.1
2018-08-23T07:01:32.018Z,46.7
2018-08-23T07:02:21.901Z,46.3
2018-08-23T07:03:11.986Z,45.9
2018-08-23T07:04:02.411Z,45.5
2018-08-23T07:04:52.198Z,45.1
2018-08-23T07:05:41.596Z,44.8
2018-08-23T07:06:32.254Z,46.2
2018-08-23T07:07:22.347Z,52.3
2018-08-23T07:08:12.673Z,58.8
2018-08-23T07:09:02.241Z,58.3
2018-08-23T07:09:52.208Z,56.3
2018-08-23T07:10:43.578Z,55.2
2018-08-23T07:11:32.336Z,54.8
2018-08-23T07:12:22.310Z,54.8
2018-08-23T07:13:12.848Z,54.6
2018-08-23T07:14:02.748Z,54.3
2018-08-23T07:14:53.343Z,53.9
2018-08-23T07:15:42.411Z,53.6
2018-08-23T07:16:32.901Z,53.2
2018-08-23T07:17:22.863Z,52.8
2018-08-23T07:19:53.136Z,51.5
2018-08-23T07:20:43.523Z,51.1
2018-08-23T07:21:33.400Z,50.6
2018-08-23T07:22:23.677Z,51.5
2018-08-23T07:23:12.458Z,59.6
2018-08-23T07:24:03.116Z,60.9
2018-08-23T07:24:53.373Z,60.2
2018-08-23T07:25:43.693Z,58.5
2018-08-23T07:26:34.158Z,56.3
2018-08-23T07:27:24.339Z,54.4
2018-08-23T07:28:13.939Z,54.4
2018-08-23T07:29:03.980Z,55.6
2018-08-23T07:29:55.686Z,56.8
2018-08-23T07:30:44.493Z,57.4
2018-08-23T07:31:35.153Z,57.4
2018-08-23T07:32:24.983Z,57
2018-08-23T07:33:15.575Z,56.5
2018-08-23T07:34:05.341Z,56.4
2018-08-23T07:34:54.898Z,56.5
2018-08-23T07:35:45.243Z,56.9
2018-08-23T07:36:35.137Z,57.3
2018-08-23T07:37:24.274Z,57.5
2018-08-23T07:38:15.161Z,57.6
2018-08-23T07:39:05.394Z,57.6
2018-08-23T07:39:55.559Z,57.6
2018-08-23T07:40:45.631Z,57.6
2018-08-23T07:41:35.718Z,57.8
2018-08-23T07:42:25.378Z,58
2018-08-23T07:43:15.447Z,58.1
2018-08-23T07:44:05.624Z,58.1
2018-08-23T07:44:55.949Z,58.1
2018-08-23T07:45:46.046Z,58.1
2018-08-23T07:46:35.837Z,58
2018-08-23T07:47:25.896Z,58
2018-08-23T07:48:15.953Z,58.1
2018-08-23T07:49:05.766Z,58.3
2018-08-23T07:49:56.494Z,58.4
2018-08-23T07:50:45.885Z,58.4
2018-08-23T07:51:36.503Z,58.4
2018-08-23T07:52:26.735Z,58.4
2018-08-23T07:53:17.738Z,58.4
2018-08-23T07:54:06.384Z,58.4
2018-08-23T07:55:46.804Z,58.7
2018-08-23T07:56:36.949Z,58.9
2018-08-23T07:57:26.940Z,59
2018-08-23T07:58:16.778Z,59.1
2018-08-23T07:59:07.058Z,59.3
2018-08-23T07:59:56.858Z,59.4
2018-08-23T08:00:46.918Z,59.4
2018-08-23T08:01:36.885Z,59.6
2018-08-23T08:02:27.031Z,59.8
2018-08-23T08:03:17.376Z,59.9
2018-08-23T08:04:07.533Z,59.9
2018-08-23T08:04:57.021Z,60.1
2018-08-23T08:05:47.742Z,60.3
2018-08-23T08:06:37.360Z,60.4
2018-08-23T08:07:27.747Z,60.5
2018-08-23T08:08:17.514Z,60.6
2018-08-23T08:09:07.840Z,60.8
2018-08-23T08:09:57.623Z,60.9
2018-08-23T08:10:47.992Z,61.1
2018-08-23T08:11:38.029Z,61.1
2018-08-23T08:12:28.366Z,61.3
2018-08-23T08:13:17.920Z,61.4
2018-08-23T08:14:08.267Z,61.5
2018-08-23T08:14:59.228Z,61.6
2018-08-23T08:15:48.095Z,61.8
2018-08-23T08:16:38.160Z,61.9
2018-08-23T08:17:28.541Z,62
2018-08-23T08:18:18.305Z,62.1
2018-08-23T08:19:08.635Z,62.3
2018-08-23T08:19:58.418Z,62.4
2018-08-23T08:20:49.176Z,62.5
2018-08-23T08:21:38.853Z,62.6
2018-08-23T08:22:28.918Z,62.8
2018-08-23T08:23:18.980Z,62.9
2018-08-23T08:24:08.464Z,63
2018-08-23T08:24:59.104Z,63.1
2018-08-23T08:25:49.182Z,63.2
2018-08-23T08:26:39.225Z,63.3
2018-08-23T08:27:28.729Z,63.4
2018-08-23T08:28:19.399Z,63.5
2018-08-23T08:29:09.544Z,63.6
2018-08-23T08:29:59.496Z,63.8
2018-08-23T08:30:49.696Z,63.9
2018-08-23T08:31:39.630Z,63.9
2018-08-23T08:32:29.786Z,64
2018-08-23T08:33:20.541Z,64.1
2018-08-23T08:34:09.521Z,64.3
2018-08-23T08:34:59.613Z,64.3
2018-08-23T08:35:48.971Z,64.4
2018-08-23T08:36:40.031Z,64.5
2018-08-23T08:37:30.133Z,64.4
2018-08-23T08:38:20.044Z,64.3
2018-08-23T08:39:09.973Z,64.2
2018-08-23T08:40:00.263Z,64.1
2018-08-23T08:40:50.320Z,64
2018-08-23T08:41:40.273Z,63.9
2018-08-23T08:42:30.568Z,63.9
2018-08-23T08:43:20.641Z,63.8
2018-08-23T08:44:10.525Z,63.6
2018-08-23T08:45:00.479Z,63.6
2018-08-23T08:45:50.658Z,63.5
2018-08-23T08:46:41.005Z,63.4
2018-08-23T08:47:31.023Z,63.6
2018-08-23T08:48:20.231Z,63.6
2018-08-23T08:49:10.548Z,63.5
2018-08-23T08:50:00.461Z,63.3
2018-08-23T08:50:51.489Z,63.1
2018-08-23T08:51:40.724Z,63.1
2018-08-23T08:52:31.428Z,63.1
2018-08-23T08:53:20.943Z,63.3
2018-08-23T08:54:11.239Z,63.4
2018-08-23T08:55:01.446Z,63.4
2018-08-23T08:55:51.009Z,63.5
2018-08-23T08:56:41.973Z,63.6
2018-08-23T08:57:31.740Z,63.6
2018-08-23T08:58:21.716Z,63.7
2018-08-23T09:15:00.205Z,64.3
2018-08-23T09:15:50.237Z,64.2
2018-08-23T09:16:40.357Z,64.1
2018-08-23T09:17:30.376Z,63.9
2018-08-23T09:18:20.446Z,63.7
2018-08-23T09:19:10.001Z,63.6
2018-08-23T09:20:00.574Z,63.6
2018-08-23T09:20:50.827Z,63.6
2018-08-23T09:21:40.418Z,63.6
2018-08-23T09:22:30.617Z,63.7
2018-08-23T09:23:20.521Z,63.7
2018-08-23T09:24:10.627Z,63.8
2018-08-23T09:25:00.686Z,63.9
2018-08-23T09:25:50.739Z,64
2018-08-23T09:26:41.106Z,64.1
2018-08-23T09:27:31.186Z,64.2
2018-08-23T09:28:20.662Z,64.3
2018-08-23T09:29:11.331Z,64.4
2018-08-23T09:30:01.389Z,64.4
2018-08-23T09:30:50.872Z,64.5
2018-08-23T09:31:41.515Z,64.7
2018-08-23T09:32:31.584Z,64.7
2018-08-23T09:33:21.054Z,64.8
2018-08-23T09:34:11.681Z,64.9
2018-08-23T09:35:01.838Z,65
2018-08-23T09:35:51.104Z,65
2018-08-23T09:36:41.895Z,64.8
2018-08-23T09:37:31.946Z,64.1
2018-08-23T09:38:21.733Z,63.8
2018-08-23T09:39:11.813Z,64.1
2018-08-23T09:40:02.156Z,64.5
2018-08-23T09:40:52.235Z,64.9
2018-08-23T09:41:42.227Z,65.2
2018-08-23T09:42:31.740Z,65.3
2018-08-23T09:43:22.153Z,65.3
2018-08-23T09:44:12.179Z,65.4
2018-08-23T09:45:02.555Z,65.5
2018-08-23T09:45:52.322Z,65.7
2018-08-23T09:46:42.099Z,65.6
2018-08-23T09:47:32.443Z,65.1
2018-08-23T09:48:22.230Z,65.1
2018-08-23T09:49:12.283Z,65.4
2018-08-23T09:50:03.283Z,65.8
2018-08-23T09:50:53.846Z,66.2
2018-08-23T09:51:42.786Z,66.4
2018-08-23T09:52:32.820Z,66.5
2018-08-23T09:53:23.173Z,66.6
2018-08-23T09:54:12.398Z,66.6
2018-08-23T09:55:03.043Z,66.8
2018-08-23T09:55:52.856Z,66.9
2018-08-23T09:56:43.950Z,67.1
2018-08-23T09:57:32.941Z,67.4
2018-08-23T09:58:23.566Z,67.6
2018-08-23T09:59:13.637Z,67.7
2018-08-23T10:00:03.431Z,67.6
2018-08-23T10:00:53.502Z,67.5
2018-08-23T10:01:43.839Z,67.7
2018-08-23T10:02:33.685Z,67.6
2018-08-23T10:03:24.044Z,67
2018-08-23T10:04:14.344Z,66.9
2018-08-23T10:05:04.155Z,67.3
2018-08-23T10:05:54.160Z,67.5
2018-08-23T10:06:44.241Z,67.8
2018-08-23T10:07:33.783Z,67.5
2018-08-23T10:08:24.388Z,67.4
2018-08-23T10:09:14.149Z,67.6
2018-08-23T10:10:04.516Z,67.6
2018-08-23T10:10:54.258Z,67.4
2018-08-23T10:11:45.316Z,66.6
2018-08-23T10:12:34.215Z,66.1
2018-08-23T10:13:24.456Z,66.4
2018-08-23T10:14:14.543Z,66.8
2018-08-23T10:15:04.882Z,67.3
2018-08-23T10:15:54.092Z,67.7
2018-08-23T10:16:44.814Z,67.8
2018-08-23T10:17:35.105Z,67.7
2018-08-23T10:18:24.002Z,67.6
2018-08-23T10:19:15.170Z,67.6
2018-08-23T10:20:05.062Z,67.6
2018-08-23T10:20:55.071Z,67.8
2018-08-23T10:21:45.448Z,67.9
2018-08-23T10:22:35.469Z,68
2018-08-23T10:23:25.538Z,68.1
2018-08-23T10:24:15.595Z,68.1
2018-08-23T10:25:05.675Z,67.4
2018-08-23T10:25:55.712Z,66.8
2018-08-23T10:26:46.409Z,67
2018-08-23T10:27:35.974Z,67.3
2018-08-23T10:28:25.664Z,67.6
2018-08-23T10:29:15.969Z,67.8
2018-08-23T10:30:06.051Z,68.1
2018-08-23T10:30:55.895Z,67.9
2018-08-23T10:31:45.675Z,67.7
2018-08-23T10:32:36.337Z,67.4
2018-08-23T10:33:26.403Z,67.3
2018-08-23T10:34:16.444Z,67.4
2018-08-23T10:35:06.496Z,67.6
2018-08-23T10:35:56.303Z,67.8
2018-08-23T10:36:46.051Z,67.9
2018-08-23T10:37:36.728Z,67.9
2018-08-23T10:38:26.501Z,67.9
2018-08-23T10:39:16.583Z,67.9
2018-08-23T10:40:06.873Z,68
2018-08-23T10:40:56.690Z,68.1
2018-08-23T10:41:46.180Z,68.1
2018-08-23T10:42:36.779Z,68.3
2018-08-23T10:43:26.550Z,68.3
2018-08-23T10:44:16.866Z,68.2
2018-08-23T10:45:06.700Z,68.1
2018-08-23T10:45:56.462Z,68.1
2018-08-23T10:46:47.109Z,68.1
2018-08-23T10:47:37.174Z,67.8
2018-08-23T10:48:27.277Z,67.7
2018-08-23T10:49:17.320Z,67.9
2018-08-23T10:50:07.364Z,68.1
2018-08-23T10:50:57.370Z,68.2
2018-08-23T10:51:47.544Z,68.3
2018-08-23T10:52:37.851Z,68.3
2018-08-23T10:53:27.850Z,67.8
2018-08-23T10:54:17.982Z,66.7
2018-08-23T10:55:08.032Z,66.1
2018-08-23T10:55:58.086Z,66.5
2018-08-23T10:56:48.141Z,66.9
2018-08-23T10:57:37.914Z,67.4
2018-08-23T10:58:28.291Z,67.8
2018-08-23T10:59:18.386Z,67.8
2018-08-23T11:00:08.381Z,67.8
2018-08-23T11:00:58.505Z,67.6
2018-08-23T11:01:48.266Z,67.6
2018-08-23T11:02:38.590Z,67.6
2018-08-23T11:03:28.683Z,67.8
2018-08-23T11:04:18.773Z,67.9
2018-08-23T11:05:08.799Z,68
2018-08-23T11:05:58.605Z,68
2018-08-23T11:06:48.744Z,68
2018-08-23T11:07:38.761Z,67.9
2018-08-23T11:08:29.056Z,68
2018-08-23T11:09:19.187Z,68.1
2018-08-23T11:10:09.213Z,68.1
2018-08-23T11:10:59.288Z,68.2
2018-08-23T11:11:49.216Z,68.2
2018-08-23T11:12:39.404Z,68.3
2018-08-23T11:13:29.520Z,68.3
2018-08-23T11:14:19.250Z,68.3
2018-08-23T11:15:09.065Z,68.3
2018-08-23T11:15:59.640Z,68.3
2018-08-23T11:16:50.515Z,68.4
2018-08-23T11:17:39.798Z,68.5
2018-08-23T11:18:29.865Z,68.5
2018-08-23T11:19:19.932Z,68.4
2018-08-23T11:20:09.517Z,68.5
2018-08-23T11:20:59.792Z,68.5
2018-08-23T11:21:50.082Z,68.4
2018-08-23T11:22:40.162Z,68.5
2018-08-23T11:23:29.965Z,68.6
2018-08-23T11:24:20.413Z,68.6
2018-08-23T11:25:10.407Z,68.6
2018-08-23T11:26:00.164Z,68.6
2018-08-23T11:26:50.211Z,68.5
2018-08-23T11:27:40.578Z,68.5
2018-08-23T11:28:30.095Z,68.5
2018-08-23T11:29:20.130Z,68.5
2018-08-23T11:30:10.765Z,68.5
2018-08-23T11:31:00.797Z,68.6
2018-08-23T11:31:50.893Z,68.6
2018-08-23T11:32:40.941Z,68.6
2018-08-23T11:33:31.069Z,68.6
2018-08-23T11:34:20.800Z,68.6
2018-08-23T11:35:11.562Z,68.6
2018-08-23T11:36:01.262Z,68.6
2018-08-23T11:36:51.039Z,68.6
2018-08-23T11:37:40.815Z,68.6
2018-08-23T11:38:30.871Z,68.6
2018-08-23T11:39:21.517Z,68.5
2018-08-23T11:40:11.621Z,68.4
2018-08-23T11:41:01.395Z,68.4
2018-08-23T11:41:51.437Z,68.4
2018-08-23T11:42:42.199Z,68.3
2018-08-23T11:43:31.857Z,68.3
2018-08-23T11:44:21.604Z,68.3
2018-08-23T11:45:11.682Z,68.3
2018-08-23T11:46:02.087Z,68.3
2018-08-23T11:46:51.871Z,68.3
2018-08-23T11:47:42.188Z,68.3
2018-08-23T11:48:32.238Z,68.2
2018-08-23T11:49:22.291Z,68.2
2018-08-23T11:50:12.389Z,68.1
2018-08-23T11:51:01.894Z,68.1
2018-08-23T11:51:51.926Z,68.1
2018-08-23T11:52:42.344Z,68.1
2018-08-23T11:53:34.972Z,68.1
2018-08-23T11:54:22.127Z,68.1
2018-08-23T11:55:12.451Z,68.1
2018-08-23T11:56:02.841Z,68.1
2018-08-23T11:56:52.621Z,68.1
2018-08-23T11:57:42.381Z,68.1
2018-08-23T11:58:33.299Z,68.1
2018-08-23T11:59:22.572Z,68.1
2018-08-23T12:00:12.879Z,68
2018-08-23T12:01:03.268Z,67.9
2018-08-23T12:01:53.401Z,67.9
2018-08-23T12:02:43.138Z,67.8
2018-08-23T12:03:33.148Z,67.7